PAL3858 RPMC-RPLL
Flight info
| Callsign | PAL3858 |
|---|---|
| Flight time | 1h 24m |
| Altitude | 38000 |
| Route | ALDIN B472 IBAGO IBAGO3R |
| Aircraft | A333/H-SDE3GHIJ2J3J5M1RVWXY/LB2D1 |
Departure
| Time | 2026-04-21 15:02 |
|---|---|
| Airport | Cotabato (Awang) Airport (RPMC) |
Arrival
| Time | 2026-04-21 16:26 |
|---|---|
| Airport | Ninoy Aquino International Airport (RPLL) |
| Time | Latitude | Longitude | Altitude | Speed | Heading |
|---|---|---|---|---|---|
| 2026-04-21 14:36 | 7.16238 | 124.21549 | 183 ft | 0 kts | 220° |
| 2026-04-21 14:56 | 7.16237 | 124.21546 | 183 ft | 0 kts | 236° |
| 2026-04-21 14:56 | 7.16241 | 124.21536 | 184 ft | 3 kts | 309° |
| 2026-04-21 14:56 | 7.16273 | 124.21561 | 181 ft | 12 kts | 58° |
| 2026-04-21 14:56 | 7.16319 | 124.21664 | 176 ft | 18 kts | 97° |
| 2026-04-21 14:57 | 7.16289 | 124.21775 | 172 ft | 6 kts | 108° |
| 2026-04-21 14:57 | 7.16272 | 124.21824 | 171 ft | 0 kts | 105° |
| 2026-04-21 14:57 | 7.16263 | 124.21864 | 169 ft | 11 kts | 102° |
| 2026-04-21 14:57 | 7.16286 | 124.21874 | 168 ft | 4 kts | 303° |
| 2026-04-21 14:58 | 7.16286 | 124.21832 | 170 ft | 7 kts | 280° |
| 2026-04-21 14:58 | 7.16288 | 124.21823 | 170 ft | 0 kts | 282° |
| 2026-04-21 15:01 | 7.16301 | 124.21761 | 173 ft | 36 kts | 282° |
| 2026-04-21 15:01 | 7.16439 | 124.21178 | 189 ft | 129 kts | 283° |
| 2026-04-21 15:01 | 7.16707 | 124.20074 | 440 ft | 176 kts | 283° |
| 2026-04-21 15:02 | 7.17319 | 124.19013 | 1287 ft | 182 kts | 324° |
| 2026-04-21 15:02 | 7.18592 | 124.18621 | 2230 ft | 205 kts | 5° |
| 2026-04-21 15:02 | 7.20061 | 124.18724 | 3451 ft | 223 kts | 360° |
| 2026-04-21 15:02 | 7.21645 | 124.18412 | 4876 ft | 238 kts | 344° |
| 2026-04-21 15:03 | 7.23214 | 124.17836 | 6362 ft | 243 kts | 339° |
| 2026-04-21 15:03 | 7.24791 | 124.17161 | 7847 ft | 245 kts | 336° |
| 2026-04-21 15:03 | 7.26344 | 124.16460 | 9274 ft | 242 kts | 335° |
| 2026-04-21 15:03 | 7.27877 | 124.15755 | 10565 ft | 236 kts | 334° |
| 2026-04-21 15:04 | 7.29394 | 124.15052 | 11554 ft | 239 kts | 334° |
| 2026-04-21 15:04 | 7.30926 | 124.14341 | 12464 ft | 243 kts | 333° |
| 2026-04-21 15:04 | 7.32509 | 124.13606 | 13346 ft | 247 kts | 333° |
| 2026-04-21 15:04 | 7.34112 | 124.12862 | 14169 ft | 252 kts | 333° |
| 2026-04-21 15:05 | 7.35752 | 124.12101 | 14947 ft | 257 kts | 333° |
| 2026-04-21 15:05 | 7.39086 | 124.10555 | 16371 ft | 266 kts | 334° |
| 2026-04-21 15:05 | 7.40818 | 124.09751 | 17028 ft | 272 kts | 334° |
| 2026-04-21 15:06 | 7.42598 | 124.08926 | 17671 ft | 278 kts | 334° |
| 2026-04-21 15:06 | 7.44410 | 124.08084 | 18344 ft | 282 kts | 335° |
| 2026-04-21 15:06 | 7.46266 | 124.07223 | 18995 ft | 286 kts | 335° |
| 2026-04-21 15:06 | 7.48136 | 124.06355 | 19611 ft | 291 kts | 335° |
| 2026-04-21 15:07 | 7.50044 | 124.05469 | 20238 ft | 294 kts | 336° |
| 2026-04-21 15:07 | 7.51970 | 124.04576 | 20823 ft | 299 kts | 336° |
| 2026-04-21 15:07 | 7.53948 | 124.03658 | 21408 ft | 303 kts | 336° |
| 2026-04-21 15:07 | 7.55893 | 124.02756 | 21962 ft | 307 kts | 337° |
| 2026-04-21 15:08 | 7.57901 | 124.01823 | 22517 ft | 311 kts | 337° |
| 2026-04-21 15:08 | 7.59968 | 124.00864 | 23055 ft | 316 kts | 337° |
| 2026-04-21 15:08 | 7.62023 | 123.99912 | 23568 ft | 321 kts | 337° |
| 2026-04-21 15:08 | 7.64131 | 123.98935 | 24080 ft | 325 kts | 337° |
| 2026-04-21 15:09 | 7.66213 | 123.97969 | 24585 ft | 329 kts | 336° |
| 2026-04-21 15:09 | 7.68332 | 123.96985 | 25065 ft | 334 kts | 336° |
| 2026-04-21 15:09 | 7.70468 | 123.95993 | 25537 ft | 338 kts | 336° |
| 2026-04-21 15:09 | 7.72677 | 123.94967 | 25999 ft | 342 kts | 336° |
| 2026-04-21 15:10 | 7.74911 | 123.93929 | 26438 ft | 347 kts | 336° |
| 2026-04-21 15:10 | 7.77169 | 123.92879 | 26886 ft | 351 kts | 336° |
| 2026-04-21 15:10 | 7.79438 | 123.91825 | 27298 ft | 355 kts | 336° |
| 2026-04-21 15:10 | 7.81734 | 123.90757 | 27724 ft | 359 kts | 336° |
| 2026-04-21 15:11 | 7.84042 | 123.89683 | 28117 ft | 363 kts | 336° |
| 2026-04-21 15:11 | 7.86419 | 123.88578 | 28505 ft | 367 kts | 335° |
| 2026-04-21 15:11 | 7.88822 | 123.87461 | 28917 ft | 370 kts | 335° |
| 2026-04-21 15:11 | 7.91247 | 123.86333 | 29336 ft | 373 kts | 335° |
| 2026-04-21 15:12 | 7.93656 | 123.85212 | 29706 ft | 376 kts | 335° |
| 2026-04-21 15:12 | 7.96125 | 123.84064 | 30070 ft | 380 kts | 335° |
| 2026-04-21 15:12 | 7.98600 | 123.82912 | 30429 ft | 383 kts | 335° |
| 2026-04-21 15:12 | 8.01098 | 123.81750 | 30768 ft | 387 kts | 335° |
| 2026-04-21 15:13 | 8.03572 | 123.80599 | 31109 ft | 389 kts | 335° |
| 2026-04-21 15:13 | 8.06113 | 123.79416 | 31455 ft | 392 kts | 335° |
| 2026-04-21 15:13 | 8.08624 | 123.78248 | 31795 ft | 394 kts | 335° |
| 2026-04-21 15:13 | 8.11159 | 123.77068 | 32136 ft | 396 kts | 335° |
| 2026-04-21 15:14 | 8.13751 | 123.75860 | 32481 ft | 397 kts | 335° |
| 2026-04-21 15:14 | 8.16342 | 123.74654 | 32852 ft | 398 kts | 335° |
| 2026-04-21 15:14 | 8.18932 | 123.73447 | 33235 ft | 399 kts | 335° |
| 2026-04-21 15:14 | 8.21529 | 123.72236 | 33622 ft | 399 kts | 335° |
| 2026-04-21 15:15 | 8.24123 | 123.71027 | 34005 ft | 399 kts | 335° |
| 2026-04-21 15:15 | 8.26703 | 123.69825 | 34388 ft | 399 kts | 335° |
| 2026-04-21 15:15 | 8.29270 | 123.68629 | 34769 ft | 398 kts | 335° |
| 2026-04-21 15:15 | 8.31811 | 123.67445 | 35148 ft | 397 kts | 335° |
| 2026-04-21 15:16 | 8.34408 | 123.66235 | 35533 ft | 396 kts | 335° |
| 2026-04-21 15:16 | 8.36938 | 123.65054 | 35910 ft | 394 kts | 335° |
| 2026-04-21 15:16 | 8.39423 | 123.63895 | 36278 ft | 393 kts | 335° |
| 2026-04-21 15:16 | 8.41894 | 123.62743 | 36644 ft | 390 kts | 335° |
| 2026-04-21 15:17 | 8.44412 | 123.61568 | 37016 ft | 388 kts | 335° |
| 2026-04-21 15:17 | 8.46877 | 123.60418 | 37379 ft | 385 kts | 335° |
| 2026-04-21 15:17 | 8.49360 | 123.59260 | 37744 ft | 382 kts | 335° |
| 2026-04-21 15:17 | 8.51818 | 123.58112 | 37952 ft | 386 kts | 335° |
| 2026-04-21 15:18 | 8.56863 | 123.55758 | 37939 ft | 403 kts | 336° |
| 2026-04-21 15:18 | 8.62034 | 123.53345 | 37923 ft | 419 kts | 335° |
| 2026-04-21 15:19 | 8.67432 | 123.50824 | 37917 ft | 435 kts | 335° |
| 2026-04-21 15:19 | 8.73053 | 123.48197 | 37907 ft | 451 kts | 335° |
| 2026-04-21 15:20 | 8.78835 | 123.45495 | 37894 ft | 464 kts | 335° |
| 2026-04-21 15:20 | 8.84824 | 123.42695 | 37893 ft | 474 kts | 335° |
| 2026-04-21 15:21 | 8.90854 | 123.39875 | 37887 ft | 465 kts | 335° |
| 2026-04-21 15:21 | 8.96736 | 123.37123 | 37882 ft | 461 kts | 335° |
| 2026-04-21 15:22 | 9.02650 | 123.34355 | 37881 ft | 463 kts | 335° |
| 2026-04-21 15:22 | 9.08671 | 123.31536 | 37886 ft | 463 kts | 335° |
| 2026-04-21 15:23 | 9.14566 | 123.28776 | 37899 ft | 464 kts | 335° |
| 2026-04-21 15:23 | 9.20453 | 123.26019 | 37912 ft | 464 kts | 335° |
| 2026-04-21 15:24 | 9.26417 | 123.23225 | 37921 ft | 465 kts | 335° |
| 2026-04-21 15:24 | 9.32419 | 123.20411 | 37917 ft | 464 kts | 335° |
| 2026-04-21 15:25 | 9.38348 | 123.17632 | 37924 ft | 464 kts | 335° |
| 2026-04-21 15:25 | 9.44244 | 123.14866 | 37928 ft | 463 kts | 335° |
| 2026-04-21 15:26 | 9.49980 | 123.12174 | 37932 ft | 465 kts | 335° |
| 2026-04-21 15:26 | 9.55904 | 123.09393 | 37941 ft | 463 kts | 334° |
| 2026-04-21 15:27 | 9.61843 | 123.06604 | 37955 ft | 463 kts | 334° |
| 2026-04-21 15:27 | 9.67709 | 123.03848 | 37971 ft | 463 kts | 334° |
| 2026-04-21 15:28 | 9.73584 | 123.01088 | 37988 ft | 464 kts | 334° |
| 2026-04-21 15:28 | 9.79515 | 122.98299 | 37991 ft | 465 kts | 334° |
| 2026-04-21 15:29 | 9.85477 | 122.95495 | 37987 ft | 464 kts | 334° |
| 2026-04-21 15:29 | 9.91364 | 122.92726 | 37979 ft | 463 kts | 334° |
| 2026-04-21 15:30 | 9.97174 | 122.89992 | 37973 ft | 461 kts | 334° |
| 2026-04-21 15:30 | 10.02913 | 122.87290 | 37963 ft | 460 kts | 334° |
| 2026-04-21 15:31 | 10.08741 | 122.84546 | 37947 ft | 461 kts | 334° |
| 2026-04-21 15:31 | 10.14484 | 122.81840 | 37930 ft | 462 kts | 334° |
| 2026-04-21 15:32 | 10.20401 | 122.79051 | 37922 ft | 462 kts | 334° |
| 2026-04-21 15:32 | 10.25977 | 122.76421 | 37911 ft | 462 kts | 334° |
| 2026-04-21 15:33 | 10.31747 | 122.73701 | 37909 ft | 462 kts | 334° |
| 2026-04-21 15:33 | 10.37503 | 122.70985 | 37907 ft | 462 kts | 334° |
| 2026-04-21 15:34 | 10.43180 | 122.68304 | 37903 ft | 461 kts | 334° |
| 2026-04-21 15:34 | 10.49061 | 122.65527 | 37903 ft | 462 kts | 334° |
| 2026-04-21 15:35 | 10.54767 | 122.62831 | 37902 ft | 462 kts | 334° |
| 2026-04-21 15:35 | 10.60647 | 122.60050 | 37903 ft | 462 kts | 334° |
| 2026-04-21 15:36 | 10.66521 | 122.57272 | 37907 ft | 462 kts | 334° |
| 2026-04-21 15:36 | 10.72308 | 122.54534 | 37906 ft | 462 kts | 334° |
| 2026-04-21 15:37 | 10.78154 | 122.51767 | 37907 ft | 462 kts | 334° |
| 2026-04-21 15:37 | 10.83971 | 122.49023 | 37904 ft | 462 kts | 335° |
| 2026-04-21 15:38 | 10.89997 | 122.46428 | 37907 ft | 463 kts | 336° |
| 2026-04-21 15:38 | 10.96006 | 122.43835 | 37922 ft | 463 kts | 336° |
| 2026-04-21 15:39 | 11.01951 | 122.41266 | 37938 ft | 463 kts | 336° |
| 2026-04-21 15:39 | 11.07775 | 122.38750 | 37945 ft | 463 kts | 335° |
| 2026-04-21 15:40 | 11.13629 | 122.36218 | 37946 ft | 463 kts | 335° |
| 2026-04-21 15:40 | 11.19436 | 122.33705 | 37954 ft | 463 kts | 335° |
| 2026-04-21 15:41 | 11.25288 | 122.31171 | 37956 ft | 464 kts | 335° |
| 2026-04-21 15:41 | 11.31297 | 122.28568 | 37955 ft | 463 kts | 335° |
| 2026-04-21 15:42 | 11.37156 | 122.26030 | 37953 ft | 463 kts | 335° |
| 2026-04-21 15:42 | 11.43023 | 122.23486 | 37950 ft | 463 kts | 335° |
| 2026-04-21 15:43 | 11.48842 | 122.20961 | 37940 ft | 463 kts | 335° |
| 2026-04-21 15:43 | 11.54664 | 122.18436 | 37932 ft | 463 kts | 335° |
| 2026-04-21 15:44 | 11.60628 | 122.15845 | 37921 ft | 462 kts | 335° |
| 2026-04-21 15:44 | 11.66512 | 122.13289 | 37915 ft | 462 kts | 335° |
| 2026-04-21 15:45 | 11.72407 | 122.10727 | 37906 ft | 462 kts | 335° |
| 2026-04-21 15:45 | 11.78311 | 122.08160 | 37903 ft | 462 kts | 335° |
| 2026-04-21 15:46 | 11.84159 | 122.05616 | 37903 ft | 463 kts | 335° |
| 2026-04-21 15:46 | 11.90035 | 122.03059 | 37903 ft | 463 kts | 335° |
| 2026-04-21 15:47 | 11.96032 | 122.00447 | 37903 ft | 463 kts | 335° |
| 2026-04-21 15:47 | 12.01977 | 121.97858 | 37903 ft | 463 kts | 335° |
| 2026-04-21 15:48 | 12.07846 | 121.95300 | 37906 ft | 462 kts | 334° |
| 2026-04-21 15:48 | 12.13612 | 121.92786 | 37899 ft | 460 kts | 335° |
| 2026-04-21 15:49 | 12.19391 | 121.90265 | 37901 ft | 459 kts | 334° |
| 2026-04-21 15:49 | 12.25281 | 121.87694 | 37901 ft | 460 kts | 335° |
| 2026-04-21 15:50 | 12.30988 | 121.85202 | 37901 ft | 461 kts | 335° |
| 2026-04-21 15:50 | 12.36930 | 121.82606 | 37903 ft | 461 kts | 334° |
| 2026-04-21 15:51 | 12.42828 | 121.80026 | 37900 ft | 460 kts | 334° |
| 2026-04-21 15:51 | 12.48770 | 121.77425 | 37907 ft | 459 kts | 334° |
| 2026-04-21 15:52 | 12.54667 | 121.74841 | 37908 ft | 459 kts | 334° |
| 2026-04-21 15:52 | 12.60552 | 121.72262 | 37916 ft | 458 kts | 334° |
| 2026-04-21 15:53 | 12.66501 | 121.69653 | 37915 ft | 458 kts | 334° |
| 2026-04-21 15:53 | 12.72405 | 121.67063 | 37920 ft | 459 kts | 334° |
| 2026-04-21 15:54 | 12.78249 | 121.64498 | 37915 ft | 458 kts | 334° |
| 2026-04-21 15:54 | 12.84155 | 121.61904 | 37919 ft | 458 kts | 334° |
| 2026-04-21 15:55 | 12.90104 | 121.59290 | 37935 ft | 457 kts | 334° |
| 2026-04-21 15:55 | 12.96016 | 121.56692 | 37926 ft | 456 kts | 334° |
| 2026-04-21 15:56 | 13.01790 | 121.54153 | 37924 ft | 456 kts | 334° |
| 2026-04-21 15:56 | 13.07515 | 121.51633 | 37929 ft | 457 kts | 334° |
| 2026-04-21 15:57 | 13.13184 | 121.49137 | 37929 ft | 458 kts | 334° |
| 2026-04-21 15:57 | 13.18971 | 121.46588 | 37936 ft | 458 kts | 334° |
| 2026-04-21 15:58 | 13.24544 | 121.44133 | 37932 ft | 456 kts | 334° |
| 2026-04-21 15:58 | 13.30232 | 121.41625 | 37932 ft | 456 kts | 334° |
| 2026-04-21 15:59 | 13.36067 | 121.39050 | 37928 ft | 457 kts | 334° |
| 2026-04-21 15:59 | 13.41843 | 121.36500 | 37926 ft | 456 kts | 334° |
| 2026-04-21 16:00 | 13.47748 | 121.33893 | 37933 ft | 457 kts | 334° |
| 2026-04-21 16:00 | 13.53482 | 121.31241 | 37867 ft | 450 kts | 326° |
| 2026-04-21 16:01 | 13.55860 | 121.29314 | 37314 ft | 441 kts | 311° |
| 2026-04-21 16:01 | 13.57853 | 121.26949 | 36588 ft | 438 kts | 309° |
| 2026-04-21 16:01 | 13.59778 | 121.24684 | 36016 ft | 434 kts | 309° |
| 2026-04-21 16:01 | 13.61766 | 121.22353 | 35434 ft | 429 kts | 309° |
| 2026-04-21 16:02 | 13.63705 | 121.20084 | 34846 ft | 425 kts | 309° |
| 2026-04-21 16:02 | 13.65673 | 121.17783 | 34195 ft | 421 kts | 309° |
| 2026-04-21 16:02 | 13.67577 | 121.15557 | 33108 ft | 414 kts | 310° |
| 2026-04-21 16:02 | 13.69499 | 121.13309 | 31920 ft | 410 kts | 310° |
| 2026-04-21 16:03 | 13.71377 | 121.11114 | 30858 ft | 404 kts | 310° |
| 2026-04-21 16:03 | 13.73344 | 121.09110 | 29769 ft | 401 kts | 323° |
| 2026-04-21 16:03 | 13.75811 | 121.07793 | 28644 ft | 400 kts | 342° |
| 2026-04-21 16:03 | 13.78547 | 121.07368 | 27614 ft | 397 kts | 1° |
| 2026-04-21 16:04 | 13.81307 | 121.07894 | 26599 ft | 394 kts | 20° |
| 2026-04-21 16:04 | 13.83734 | 121.09167 | 25587 ft | 390 kts | 25° |
| 2026-04-21 16:04 | 13.86380 | 121.09998 | 24677 ft | 383 kts | 4° |
| 2026-04-21 16:04 | 13.89083 | 121.09833 | 23855 ft | 375 kts | 343° |
| 2026-04-21 16:05 | 13.91492 | 121.08717 | 23167 ft | 365 kts | 322° |
| 2026-04-21 16:05 | 13.93260 | 121.06894 | 22495 ft | 356 kts | 302° |
| 2026-04-21 16:05 | 13.94717 | 121.04871 | 21864 ft | 353 kts | 309° |
| 2026-04-21 16:05 | 13.96444 | 121.02981 | 21174 ft | 352 kts | 313° |
| 2026-04-21 16:06 | 13.98245 | 121.01182 | 20192 ft | 360 kts | 315° |
| 2026-04-21 16:06 | 14.00086 | 120.99426 | 19022 ft | 371 kts | 316° |
| 2026-04-21 16:06 | 14.01991 | 120.97649 | 18367 ft | 363 kts | 317° |
| 2026-04-21 16:06 | 14.03834 | 120.95940 | 18277 ft | 340 kts | 317° |
| 2026-04-21 16:07 | 14.05604 | 120.94305 | 17721 ft | 335 kts | 317° |
| 2026-04-21 16:07 | 14.07392 | 120.92650 | 17025 ft | 335 kts | 318° |
| 2026-04-21 16:07 | 14.09144 | 120.91009 | 16436 ft | 332 kts | 317° |
| 2026-04-21 16:07 | 14.10844 | 120.89410 | 15883 ft | 328 kts | 318° |
| 2026-04-21 16:08 | 14.14197 | 120.86231 | 14743 ft | 323 kts | 318° |
| 2026-04-21 16:08 | 14.15858 | 120.84639 | 14150 ft | 320 kts | 318° |
| 2026-04-21 16:08 | 14.17347 | 120.82896 | 13528 ft | 320 kts | 301° |
| 2026-04-21 16:09 | 14.18072 | 120.80709 | 12924 ft | 319 kts | 276° |
| 2026-04-21 16:09 | 14.17873 | 120.78432 | 12310 ft | 317 kts | 252° |
| 2026-04-21 16:09 | 14.16804 | 120.76457 | 11713 ft | 314 kts | 227° |
| 2026-04-21 16:09 | 14.15032 | 120.75101 | 11122 ft | 309 kts | 202° |
| 2026-04-21 16:10 | 14.12983 | 120.74332 | 10551 ft | 305 kts | 197° |
| 2026-04-21 16:10 | 14.10956 | 120.73604 | 10004 ft | 304 kts | 197° |
| 2026-04-21 16:10 | 14.08920 | 120.72869 | 9457 ft | 301 kts | 197° |
| 2026-04-21 16:10 | 14.06918 | 120.72140 | 8903 ft | 300 kts | 197° |
| 2026-04-21 16:11 | 14.04922 | 120.71400 | 8370 ft | 298 kts | 202° |
| 2026-04-21 16:11 | 14.03219 | 120.70129 | 7795 ft | 300 kts | 229° |
| 2026-04-21 16:11 | 14.02210 | 120.68199 | 7259 ft | 298 kts | 256° |
| 2026-04-21 16:11 | 14.02037 | 120.66059 | 6722 ft | 295 kts | 272° |
| 2026-04-21 16:12 | 14.02050 | 120.64639 | 6386 ft | 293 kts | 271° |
| 2026-04-21 16:12 | 14.02068 | 120.61794 | 5681 ft | 291 kts | 271° |
| 2026-04-21 16:12 | 14.02083 | 120.59663 | 5161 ft | 290 kts | 271° |
| 2026-04-21 16:12 | 14.02098 | 120.57556 | 4633 ft | 289 kts | 272° |
| 2026-04-21 16:13 | 14.02511 | 120.55533 | 4084 ft | 286 kts | 298° |
| 2026-04-21 16:13 | 14.03822 | 120.53921 | 3929 ft | 280 kts | 328° |
| 2026-04-21 16:13 | 14.05611 | 120.53168 | 3944 ft | 272 kts | 356° |
| 2026-04-21 16:13 | 14.07528 | 120.53213 | 3930 ft | 266 kts | 11° |
| 2026-04-21 16:14 | 14.09333 | 120.53646 | 3923 ft | 263 kts | 22° |
| 2026-04-21 16:14 | 14.11037 | 120.54381 | 3955 ft | 263 kts | 28° |
| 2026-04-21 16:14 | 14.12651 | 120.55253 | 3910 ft | 260 kts | 32° |
| 2026-04-21 16:14 | 14.14208 | 120.56197 | 3915 ft | 259 kts | 34° |
| 2026-04-21 16:15 | 14.15749 | 120.57193 | 3833 ft | 254 kts | 36° |
| 2026-04-21 16:15 | 14.17273 | 120.58213 | 3543 ft | 248 kts | 36° |
| 2026-04-21 16:15 | 14.18698 | 120.59185 | 3160 ft | 237 kts | 37° |
| 2026-04-21 16:15 | 14.20097 | 120.60154 | 2893 ft | 232 kts | 37° |
| 2026-04-21 16:16 | 14.21463 | 120.61105 | 2973 ft | 232 kts | 37° |
| 2026-04-21 16:16 | 14.22794 | 120.62031 | 2902 ft | 212 kts | 37° |
| 2026-04-21 16:16 | 14.24014 | 120.62885 | 2887 ft | 201 kts | 37° |
| 2026-04-21 16:16 | 14.25113 | 120.63655 | 2868 ft | 182 kts | 37° |
| 2026-04-21 16:17 | 14.26147 | 120.64380 | 3033 ft | 174 kts | 38° |
| 2026-04-21 16:17 | 14.27163 | 120.65095 | 2892 ft | 172 kts | 38° |
| 2026-04-21 16:17 | 14.28147 | 120.65785 | 2979 ft | 169 kts | 38° |
| 2026-04-21 16:17 | 14.29148 | 120.66488 | 2905 ft | 170 kts | 38° |
| 2026-04-21 16:18 | 14.30152 | 120.67191 | 2922 ft | 170 kts | 38° |
| 2026-04-21 16:18 | 14.31156 | 120.67896 | 2921 ft | 170 kts | 38° |
| 2026-04-21 16:18 | 14.32159 | 120.68600 | 2922 ft | 169 kts | 38° |
| 2026-04-21 16:18 | 14.33071 | 120.69392 | 2884 ft | 167 kts | 58° |
| 2026-04-21 16:19 | 14.33620 | 120.70461 | 2949 ft | 166 kts | 64° |
| 2026-04-21 16:19 | 14.34183 | 120.71535 | 2922 ft | 166 kts | 63° |
| 2026-04-21 16:19 | 14.34746 | 120.72598 | 2924 ft | 167 kts | 63° |
| 2026-04-21 16:19 | 14.35323 | 120.73686 | 2926 ft | 166 kts | 63° |
| 2026-04-21 16:20 | 14.35889 | 120.74747 | 2922 ft | 166 kts | 63° |
| 2026-04-21 16:20 | 14.36462 | 120.75822 | 2928 ft | 167 kts | 63° |
| 2026-04-21 16:20 | 14.37036 | 120.76899 | 2926 ft | 166 kts | 63° |
| 2026-04-21 16:20 | 14.37607 | 120.77971 | 2928 ft | 166 kts | 63° |
| 2026-04-21 16:21 | 14.38176 | 120.79038 | 2930 ft | 167 kts | 63° |
| 2026-04-21 16:21 | 14.38741 | 120.80098 | 2927 ft | 167 kts | 63° |
| 2026-04-21 16:21 | 14.39310 | 120.81167 | 2926 ft | 167 kts | 63° |
| 2026-04-21 16:21 | 14.39906 | 120.82210 | 2920 ft | 165 kts | 63° |
| 2026-04-21 16:22 | 14.40439 | 120.83266 | 2923 ft | 165 kts | 64° |
| 2026-04-21 16:22 | 14.40988 | 120.84336 | 2919 ft | 166 kts | 62° |
| 2026-04-21 16:22 | 14.41551 | 120.85329 | 2926 ft | 167 kts | 62° |
| 2026-04-21 16:22 | 14.42145 | 120.86382 | 2923 ft | 167 kts | 62° |
| 2026-04-21 16:23 | 14.42736 | 120.87441 | 2863 ft | 170 kts | 62° |
| 2026-04-21 16:23 | 14.43333 | 120.88507 | 2593 ft | 168 kts | 62° |
| 2026-04-21 16:23 | 14.43921 | 120.89556 | 2353 ft | 167 kts | 62° |
| 2026-04-21 16:23 | 14.44514 | 120.90617 | 2124 ft | 165 kts | 62° |
| 2026-04-21 16:24 | 14.45089 | 120.91644 | 1902 ft | 165 kts | 61° |
| 2026-04-21 16:24 | 14.45673 | 120.92686 | 1674 ft | 165 kts | 61° |
| 2026-04-21 16:24 | 14.46253 | 120.93720 | 1472 ft | 165 kts | 61° |
| 2026-04-21 16:24 | 14.46837 | 120.94766 | 1243 ft | 166 kts | 61° |
| 2026-04-21 16:25 | 14.47420 | 120.95806 | 1016 ft | 160 kts | 62° |
| 2026-04-21 16:25 | 14.47973 | 120.96797 | 803 ft | 156 kts | 61° |
| 2026-04-21 16:25 | 14.48534 | 120.97800 | 612 ft | 156 kts | 61° |
| 2026-04-21 16:25 | 14.49073 | 120.98802 | 461 ft | 156 kts | 61° |
| 2026-04-21 16:26 | 14.49620 | 120.99736 | 186 ft | 148 kts | 60° |
| 2026-04-21 16:26 | 14.50138 | 121.00639 | 87 ft | 137 kts | 60° |
| 2026-04-21 16:26 | 14.50533 | 121.01359 | 87 ft | 83 kts | 60° |
| 2026-04-21 16:26 | 14.50683 | 121.01620 | 87 ft | 15 kts | 53° |
| 2026-04-21 16:27 | 14.50728 | 121.01676 | 87 ft | 5 kts | 47° |
| 2026-04-21 16:27 | 14.50742 | 121.01691 | 87 ft | 11 kts | 45° |
| 2026-04-21 16:27 | 14.50817 | 121.01758 | 87 ft | 0 kts | 39° |
| 2026-04-21 16:28 | 14.50860 | 121.01781 | 87 ft | 12 kts | 8° |
| 2026-04-21 16:28 | 14.50948 | 121.01714 | 87 ft | 18 kts | 282° |
| 2026-04-21 16:28 | 14.50977 | 121.01578 | 87 ft | 23 kts | 313° |
| 2026-04-21 16:28 | 14.51075 | 121.01477 | 87 ft | 8 kts | 315° |
| 2026-04-21 16:29 | 14.51080 | 121.01472 | 87 ft | 0 kts | 312° |
| 2026-04-21 16:29 | 14.51083 | 121.01449 | 87 ft | 5 kts | 250° |
| 2026-04-21 16:29 | 14.51068 | 121.01427 | 87 ft | 1 kts | 233° |
| 2026-04-21 16:29 | 14.51059 | 121.01415 | 87 ft | 2 kts | 232° |
| 2026-04-21 16:30 | 14.51056 | 121.01411 | 87 ft | 0 kts | 232° |